Time;durP1;ratioP1;P1;durP2;ratioP2;P2;SDS_P1;SDS_P2;PMS_P1;PMS_P2;Temp;Humidity;BMP_temperature;BMP_pressure;BME280_temperature;BME280_humidity;BME280_pressure;Samples;Min_cycle;Max_cycle;Signal;HPM_P1;HPM_P2
2023/05/03 00:00:32;;;;;;;;;;;;;;;6.03;69.90;102855.25;5035045;28;1213;-76
2023/05/03 00:02:57;;;;;;;;;;;;;;;6.01;70.43;102851.84;5047705;28;1243;-76
2023/05/03 00:05:24;;;;;;;;;;;;;;;6.00;70.39;102850.19;5039834;28;1204;-76
2023/05/03 00:07:49;;;;;;;;;;;;;;;5.97;71.07;102858.84;5055266;28;1192;-76
2023/05/03 00:10:15;;;;;;;;;;;;;;;5.98;70.04;102862.28;5040170;28;1894;-77
2023/05/03 00:12:41;;;;;;;;;;;;;;;5.96;70.35;102858.88;5047709;28;1270;-77
2023/05/03 00:15:06;;;;;;;;;;;;;;;5.96;71.78;102861.44;5049267;28;1253;-76
2023/05/03 00:17:32;;;;;;;;;;;;;;;5.94;71.13;102855.50;5055229;28;1334;-76
2023/05/03 00:19:57;;;;;;;;;;;;;;;5.94;71.15;102850.34;5043269;28;1236;-76
2023/05/03 00:22:23;;;;;;;;;;;;;;;5.91;70.84;102840.09;5047080;28;1196;-76
2023/05/03 00:24:50;;;;;;;;;;;;;;;5.89;70.99;102852.19;5051816;28;1213;-76
2023/05/03 00:27:15;;;;;;;;;;;;;;;5.85;71.23;102854.88;5055802;28;1476;-76
2023/05/03 00:29:40;;;;;;;;;;;;;;;5.83;71.76;102848.06;5045266;28;1914;-76
2023/05/03 00:32:06;;;;;;;;;;;;;;;5.79;72.34;102847.34;5039826;28;1624;-76
2023/05/03 00:34:31;;;;;;;;;;;;;;;5.73;72.36;102847.47;5044242;28;1228;-76
2023/05/03 00:36:57;;;;;;;;;;;;;;;5.68;73.11;102839.06;5039579;28;1172;-76
2023/05/03 00:39:22;;;;;;;;;;;;;;;5.64;72.01;102842.63;5039956;28;1353;-76
2023/05/03 00:41:47;;;;;;;;;;;;;;;5.56;72.92;102844.53;5046351;28;1620;-76
2023/05/03 00:44:14;;;;;;;;;;;;;;;5.53;73.44;102849.78;5041965;28;1220;-76
2023/05/03 00:46:39;;;;;;;;;;;;;;;5.48;73.30;102851.66;5044336;28;1763;-79
2023/05/03 00:49:05;;;;;;;;;;;;;;;5.46;72.97;102845.72;5033648;28;1902;-76
2023/05/03 00:51:30;;;;;;;;;;;;;;;5.46;72.92;102856.00;5045369;28;1734;-76
2023/05/03 00:53:56;;;;;;;;;;;;;;;5.46;72.66;102838.00;5047933;28;1252;-76
2023/05/03 00:56:22;;;;;;;;;;;;;;;5.46;72.89;102843.97;5053377;28;1223;-76
2023/05/03 00:58:47;;;;;;;;;;;;;;;5.47;72.77;102844.81;5055625;28;1544;-76
2023/05/03 01:01:14;;;;;;;;;;;;;;;5.48;72.58;102846.50;5038037;28;1193;-76
2023/05/03 01:03:40;;;;;;;;;;;;;;;5.49;72.51;102848.19;5040724;28;1521;-76
2023/05/03 01:06:20;;;;;;;;;;;;;;;5.48;73.25;102846.50;5062409;28;1340;-76
2023/05/03 01:08:57;;;;;;;;;;;;;;;5.46;72.64;102849.13;5039240;28;1901;-76
2023/05/03 01:11:24;;;;;;;;;;;;;;;5.47;73.23;102844.81;5035881;28;1219;-76
2023/05/03 01:13:53;;;;;;;;;;;;;;;5.47;72.93;102839.66;5038945;28;1165;-76
2023/05/03 01:16:38;;;;;;;;;;;;;;;5.46;72.72;102843.13;5037245;28;1272;-76
2023/05/03 01:19:06;;;;;;;;;;;;;;;5.46;72.94;102848.28;5040224;28;1208;-77
2023/05/03 01:21:32;;;;;;;;;;;;;;;5.41;73.10;102839.84;5036203;28;1329;-76
2023/05/03 01:23:57;;;;;;;;;;;;;;;5.38;73.53;102850.22;5043596;28;1418;-76
2023/05/03 01:26:24;;;;;;;;;;;;;;;5.30;74.15;102856.41;5039035;28;1261;-76
2023/05/03 01:28:50;;;;;;;;;;;;;;;5.22;74.95;102858.34;5044292;28;2008;-76
2023/05/03 01:31:30;;;;;;;;;;;;;;;5.15;74.91;102854.22;5041259;28;1541;-76
2023/05/03 01:33:59;;;;;;;;;;;;;;;5.08;74.83;102857.84;5044825;28;1271;-76
2023/05/03 01:36:27;;;;;;;;;;;;;;;5.05;74.67;102855.38;5041533;28;1201;-77
2023/05/03 01:38:53;;;;;;;;;;;;;;;5.03;74.63;102844.28;5034725;28;1466;-76
2023/05/03 01:41:19;;;;;;;;;;;;;;;5.01;74.89;102851.19;5045190;28;1482;-76
2023/05/03 01:43:45;;;;;;;;;;;;;;;5.00;74.58;102854.66;5041969;28;1167;-76
2023/05/03 01:46:10;;;;;;;;;;;;;;;4.96;76.05;102845.31;5031627;28;1596;-77
2023/05/03 01:48:35;;;;;;;;;;;;;;;4.90;76.44;102853.19;5037695;28;1959;-76
2023/05/03 01:51:01;;;;;;;;;;;;;;;4.89;75.40;102848.94;5040168;28;1352;-76
2023/05/03 01:53:26;;;;;;;;;;;;;;;4.89;74.92;102846.38;5033424;28;1236;-76
2023/05/03 01:55:51;;;;;;;;;;;;;;;4.88;75.14;102839.53;5034582;28;1204;-77
2023/05/03 01:58:16;;;;;;;;;;;;;;;4.88;74.71;102847.25;5038595;28;1214;-76
2023/05/03 02:00:43;;;;;;;;;;;;;;;4.91;74.60;102845.44;5035504;28;1246;-77
2023/05/03 02:03:09;;;;;;;;;;;;;;;4.94;74.93;102849.66;5033823;28;1244;-77
2023/05/03 02:05:34;;;;;;;;;;;;;;;4.96;75.16;102842.75;5038835;28;1593;-77
2023/05/03 02:07:59;;;;;;;;;;;;;;;4.96;74.38;102853.03;5033293;28;1231;-76
2023/05/03 02:10:25;;;;;;;;;;;;;;;4.95;74.58;102859.91;5037563;28;1906;-77
2023/05/03 02:12:50;;;;;;;;;;;;;;;4.95;74.40;102851.34;5045939;28;1494;-77
2023/05/03 02:15:18;;;;;;;;;;;;;;;4.93;74.41;102850.53;5040864;28;1255;-77
2023/05/03 02:17:46;;;;;;;;;;;;;;;4.90;74.22;102853.19;5042881;28;1474;-76
2023/05/03 02:20:11;;;;;;;;;;;;;;;4.89;74.39;102856.66;5034183;28;1179;-77
2023/05/03 02:22:36;;;;;;;;;;;;;;;4.88;74.52;102852.41;5037418;28;2016;-77
2023/05/03 02:25:02;;;;;;;;;;;;;;;4.88;74.22;102849.81;5039052;28;1187;-77
2023/05/03 02:27:27;;;;;;;;;;;;;;;4.87;74.61;102842.97;5038916;28;1189;-77
2023/05/03 02:29:52;;;;;;;;;;;;;;;4.84;74.23;102833.63;5035321;28;1969;-76
2023/05/03 02:32:17;;;;;;;;;;;;;;;4.80;74.60;102832.84;5040443;28;1331;-77
2023/05/03 02:34:43;;;;;;;;;;;;;;;4.80;74.88;102832.84;5037878;28;1268;-77
2023/05/03 02:37:08;;;;;;;;;;;;;;;4.78;74.35;102839.75;5035990;28;1189;-77
2023/05/03 02:39:34;;;;;;;;;;;;;;;4.73;74.61;102833.88;5033052;28;1252;-77
2023/05/03 02:41:59;;;;;;;;;;;;;;;4.70;74.81;102828.84;5036228;28;1261;-77
2023/05/03 02:44:24;;;;;;;;;;;;;;;4.70;74.47;102821.13;5041498;28;1296;-76
2023/05/03 02:46:49;;;;;;;;;;;;;;;4.71;74.73;102824.53;5041820;28;1314;-77
2023/05/03 02:49:15;;;;;;;;;;;;;;;4.69;75.07;102810.88;5038850;28;1961;-77
2023/05/03 02:51:40;;;;;;;;;;;;;;;4.67;75.07;102808.34;5039415;28;1570;-77
2023/05/03 02:54:05;;;;;;;;;;;;;;;4.62;75.17;102794.75;5054711;28;1563;-76
2023/05/03 02:56:32;;;;;;;;;;;;;;;4.60;75.11;102799.09;5031486;28;1372;-77
2023/05/03 02:58:57;;;;;;;;;;;;;;;4.56;76.05;102792.34;5034936;28;1320;-76
2023/05/03 03:01:22;;;;;;;;;;;;;;;4.50;76.12;102797.63;5042830;28;1297;-76
2023/05/03 03:03:47;;;;;;;;;;;;;;;4.48;76.01;102799.41;5037724;28;1287;-75
2023/05/03 03:06:13;;;;;;;;;;;;;;;4.47;76.12;102802.84;5043694;28;1235;-76
2023/05/03 03:08:38;;;;;;;;;;;;;;;4.45;76.17;102795.16;5041084;28;1929;-76
2023/05/03 03:11:04;;;;;;;;;;;;;;;4.45;76.44;102802.03;5037826;28;1457;-76
2023/05/03 03:13:29;;;;;;;;;;;;;;;4.45;75.81;102807.19;5035942;28;1314;-76
2023/05/03 03:15:54;;;;;;;;;;;;;;;4.44;76.14;102814.03;5038555;28;1189;-76
2023/05/03 03:18:20;;;;;;;;;;;;;;;4.44;76.43;102818.34;5045734;28;1268;-76
2023/05/03 03:20:45;;;;;;;;;;;;;;;4.42;76.07;102820.13;5043106;28;1347;-78
2023/05/03 03:23:10;;;;;;;;;;;;;;;4.40;76.05;102821.84;5045366;28;1088;-75
2023/05/03 03:25:35;;;;;;;;;;;;;;;4.39;76.10;102815.03;5041849;28;1192;-76
2023/05/03 03:28:01;;;;;;;;;;;;;;;4.38;76.15;102823.63;5035430;28;1340;-76
2023/05/03 03:30:26;;;;;;;;;;;;;;;4.38;75.90;102818.50;5046499;28;1926;-76
2023/05/03 03:32:51;;;;;;;;;;;;;;;4.37;75.49;102811.66;5042309;28;1268;-76
2023/05/03 03:35:17;;;;;;;;;;;;;;;4.36;76.16;102820.22;5056538;28;1269;-76
2023/05/03 03:37:42;;;;;;;;;;;;;;;4.34;76.15;102822.00;5044181;28;1363;-78
2023/05/03 03:40:07;;;;;;;;;;;;;;;4.32;76.57;102818.63;5039675;28;1537;-78
2023/05/03 03:42:33;;;;;;;;;;;;;;;4.33;76.91;102815.19;5044648;28;1167;-76
2023/05/03 03:44:58;;;;;;;;;;;;;;;4.29;76.67;102803.28;5039998;28;1658;-76
2023/05/03 03:47:23;;;;;;;;;;;;;;;4.28;76.70;102799.03;5043274;28;1221;-76
2023/05/03 03:49:48;;;;;;;;;;;;;;;4.22;76.81;102813.69;5039586;28;1953;-77
2023/05/03 03:52:13;;;;;;;;;;;;;;;4.22;76.79;102807.72;5042881;28;1177;-76
2023/05/03 03:54:39;;;;;;;;;;;;;;;4.21;76.91;102801.75;5056880;28;1220;-76
2023/05/03 03:57:04;;;;;;;;;;;;;;;4.20;76.81;102812.91;5037778;28;1218;-76
2023/05/03 03:59:29;;;;;;;;;;;;;;;4.18;76.96;102817.22;5047203;28;1386;-76
2023/05/03 04:01:54;;;;;;;;;;;;;;;4.17;77.05;102815.53;5039426;28;1201;-76
2023/05/03 04:04:20;;;;;;;;;;;;;;;4.18;77.45;102822.34;5042299;28;1513;-75
2023/05/03 04:06:45;;;;;;;;;;;;;;;4.16;77.17;102824.13;5044244;28;1304;-77
2023/05/03 04:09:10;;;;;;;;;;;;;;;4.14;77.29;102825.88;5041091;28;2372;-76
2023/05/03 04:11:36;;;;;;;;;;;;;;;4.16;77.34;102829.25;5041077;28;1321;-76
2023/05/03 04:14:02;;;;;;;;;;;;;;;4.15;77.21;102830.13;5042195;28;1498;-76
2023/05/03 04:16:27;;;;;;;;;;;;;;;4.16;77.41;102839.53;5042976;28;1326;-76
2023/05/03 04:18:52;;;;;;;;;;;;;;;4.16;77.07;102839.53;5044667;28;1160;-76
2023/05/03 04:21:18;;;;;;;;;;;;;;;4.16;77.27;102842.09;5044478;28;1514;-76
2023/05/03 04:23:43;;;;;;;;;;;;;;;4.16;77.09;102839.53;5046114;28;1124;-76
2023/05/03 04:26:09;;;;;;;;;;;;;;;4.17;77.35;102843.78;5043757;28;1382;-77
2023/05/03 04:28:34;;;;;;;;;;;;;;;4.17;77.48;102836.06;5040007;28;1497;-78
2023/05/03 04:30:59;;;;;;;;;;;;;;;4.18;77.38;102832.63;5036088;28;1918;-76
2023/05/03 04:33:25;;;;;;;;;;;;;;;4.17;77.66;102835.22;5046683;28;1568;-76
2023/05/03 04:35:51;;;;;;;;;;;;;;;4.17;77.72;102835.22;5062101;28;1386;-77
2023/05/03 04:38:18;;;;;;;;;;;;;;;4.15;77.49;102837.84;5041615;28;1092;-76
2023/05/03 04:40:43;;;;;;;;;;;;;;;4.14;77.73;102850.72;5037575;28;1260;-76
2023/05/03 04:43:08;;;;;;;;;;;;;;;4.13;77.68;102860.16;5047108;28;1397;-76
2023/05/03 04:45:34;;;;;;;;;;;;;;;4.14;77.80;102861.84;5039253;28;1303;-76
2023/05/03 04:47:59;;;;;;;;;;;;;;;4.14;78.55;102861.84;5046437;28;1214;-77
2023/05/03 04:50:24;;;;;;;;;;;;;;;4.16;77.86;102869.50;5041571;28;1895;-75
2023/05/03 04:52:50;;;;;;;;;;;;;;;4.17;77.80;102872.03;5052273;28;1368;-77
2023/05/03 04:55:15;;;;;;;;;;;;;;;4.20;78.12;102869.41;5032447;28;1193;-75
2023/05/03 04:57:41;;;;;;;;;;;;;;;4.22;78.01;102875.34;5045106;28;1232;-76
2023/05/03 05:00:10;;;;;;;;;;;;;;;4.21;79.73;102883.94;5046256;28;1260;-76
2023/05/03 05:02:35;;;;;;;;;;;;;;;4.17;79.17;102897.72;5040201;28;1501;-77
2023/05/03 05:05:00;;;;;;;;;;;;;;;4.18;79.35;102891.69;5047365;28;1536;-76
2023/05/03 05:07:25;;;;;;;;;;;;;;;4.17;81.29;102887.44;5037555;28;1316;-77
2023/05/03 05:09:50;;;;;;;;;;;;;;;4.17;79.62;102887.44;5044541;28;1897;-77
2023/05/03 05:12:16;;;;;;;;;;;;;;;4.21;80.03;102894.19;5041557;28;1188;-76
2023/05/03 05:14:41;;;;;;;;;;;;;;;4.23;80.26;102895.00;5046446;28;1492;-76
2023/05/03 05:17:07;;;;;;;;;;;;;;;4.25;80.90;102900.97;5046959;28;1854;-77
2023/05/03 05:19:32;;;;;;;;;;;;;;;4.29;80.03;102888.03;5042021;28;1208;-76
2023/05/03 05:21:57;;;;;;;;;;;;;;;4.34;79.66;102888.78;5040434;28;1123;-76
2023/05/03 05:24:22;;;;;;;;;;;;;;;4.37;80.12;102883.59;5038690;28;1236;-76
2023/05/03 05:26:48;;;;;;;;;;;;;;;4.40;79.55;102886.94;5036985;28;1028;-76
2023/05/03 05:29:13;;;;;;;;;;;;;;;4.46;79.47;102899.63;5039181;28;1965;-77
2023/05/03 05:31:38;;;;;;;;;;;;;;;4.53;79.63;102900.38;5038509;28;1216;-76
2023/05/03 05:34:04;;;;;;;;;;;;;;;4.58;79.73;102901.06;5037019;28;1213;-77
2023/05/03 05:36:29;;;;;;;;;;;;;;;4.61;79.74;102903.59;5044556;28;1256;-77
2023/05/03 05:38:54;;;;;;;;;;;;;;;4.66;79.58;102904.31;5042265;28;1136;-76
2023/05/03 05:41:20;;;;;;;;;;;;;;;4.72;79.36;102901.59;5043190;28;1297;-76
2023/05/03 05:43:45;;;;;;;;;;;;;;;4.82;78.46;102903.94;5034339;28;1236;-76
2023/05/03 05:46:10;;;;;;;;;;;;;;;4.79;78.99;102898.00;5046211;28;1216;-76
2023/05/03 05:48:35;;;;;;;;;;;;;;;4.84;79.53;102909.91;5057410;28;1424;-76
2023/05/03 05:51:01;;;;;;;;;;;;;;;4.91;79.60;102916.59;5042702;28;1886;-76
2023/05/03 05:53:27;;;;;;;;;;;;;;;4.96;79.34;102909.59;5041117;28;1248;-77
2023/05/03 05:55:52;;;;;;;;;;;;;;;5.03;79.34;102911.13;5061092;28;1291;-77
2023/05/03 05:58:17;;;;;;;;;;;;;;;5.07;79.21;102912.75;5041092;28;1494;-76
2023/05/03 06:00:44;;;;;;;;;;;;;;;5.12;79.02;102915.22;5039334;28;1200;-77
2023/05/03 06:03:09;;;;;;;;;;;;;;;5.18;79.05;102920.22;5052650;28;1304;-76
2023/05/03 06:05:34;;;;;;;;;;;;;;;5.19;78.97;102912.44;5044690;28;1367;-76
2023/05/03 06:07:59;;;;;;;;;;;;;;;5.25;79.06;102914.84;5040810;28;1200;-76
2023/05/03 06:10:25;;;;;;;;;;;;;;;5.32;78.20;102911.22;5054418;28;1885;-76
2023/05/03 06:12:50;;;;;;;;;;;;;;;5.37;78.66;102905.13;5035032;28;1128;-76
2023/05/03 06:15:15;;;;;;;;;;;;;;;5.47;78.37;102899.69;5043929;28;1255;-76
2023/05/03 06:17:40;;;;;;;;;;;;;;;5.49;78.96;102902.22;5043531;28;1218;-76
2023/05/03 06:20:10;;;;;;;;;;;;;;;5.55;78.58;102905.47;5042397;28;1193;-76
2023/05/03 06:22:35;;;;;;;;;;;;;;;5.62;78.42;102906.19;5043461;28;1151;-76
2023/05/03 06:25:00;;;;;;;;;;;;;;;5.66;78.36;102901.78;5043023;28;1276;-76
2023/05/03 06:27:26;;;;;;;;;;;;;;;5.75;78.73;102893.81;5044773;28;1246;-76
2023/05/03 06:29:51;;;;;;;;;;;;;;;5.81;78.68;102897.03;5041479;28;1969;-76
2023/05/03 06:32:17;;;;;;;;;;;;;;;5.94;77.48;102901.88;5032396;28;1362;-78
2023/05/03 06:34:42;;;;;;;;;;;;;;;5.90;78.15;102889.94;5043191;28;1267;-76
2023/05/03 06:37:08;;;;;;;;;;;;;;;6.01;77.88;102893.06;5041675;28;1435;-77
2023/05/03 06:39:33;;;;;;;;;;;;;;;6.06;77.48;102892.03;5032221;28;1187;-76
2023/05/03 06:41:59;;;;;;;;;;;;;;;6.17;77.64;102893.47;5038909;28;1443;-77
2023/05/03 06:44:24;;;;;;;;;;;;;;;6.25;78.37;102882.06;5042606;28;1315;-76
2023/05/03 06:46:50;;;;;;;;;;;;;;;6.31;76.69;102886.19;5052760;28;1259;-77
2023/05/03 06:49:15;;;;;;;;;;;;;;;6.39;77.65;102887.63;5028526;28;1973;-76
2023/05/03 06:51:40;;;;;;;;;;;;;;;6.47;76.53;102881.38;5039770;28;1566;-76
2023/05/03 06:54:07;;;;;;;;;;;;;;;6.59;76.50;102880.97;5041239;28;1247;-77
2023/05/03 06:56:35;;;;;;;;;;;;;;;6.59;76.26;102886.13;5049903;28;1069;-76
2023/05/03 06:59:00;;;;;;;;;;;;;;;6.61;75.64;102882.63;5043146;28;1331;-76
2023/05/03 07:01:26;;;;;;;;;;;;;;;6.69;76.30;102887.53;5042109;28;1456;-76
2023/05/03 07:03:51;;;;;;;;;;;;;;;6.78;76.23;102886.41;5044395;28;1267;-76
2023/05/03 07:06:17;;;;;;;;;;;;;;;6.90;74.69;102896.31;5047906;28;1589;-76
2023/05/03 07:08:42;;;;;;;;;;;;;;;6.90;74.26;102886.84;5048023;28;1379;-77
2023/05/03 07:11:08;;;;;;;;;;;;;;;7.01;74.54;102888.22;5042803;28;1894;-77
2023/05/03 07:13:34;;;;;;;;;;;;;;;7.06;74.29;102894.09;5046856;28;1066;-76
2023/05/03 07:15:59;;;;;;;;;;;;;;;7.14;73.58;102884.31;5045414;28;1173;-77
2023/05/03 07:18:24;;;;;;;;;;;;;;;7.27;73.37;102893.31;5040885;28;1498;-77
2023/05/03 07:20:50;;;;;;;;;;;;;;;7.35;72.13;102887.91;5042371;28;1264;-77
2023/05/03 07:23:15;;;;;;;;;;;;;;;7.36;73.08;102887.84;5047834;28;1064;-77
2023/05/03 07:25:41;;;;;;;;;;;;;;;7.47;71.74;102891.81;5045508;28;1271;-77
2023/05/03 07:28:06;;;;;;;;;;;;;;;7.54;71.91;102883.78;5043032;28;1216;-77
2023/05/03 07:30:31;;;;;;;;;;;;;;;7.61;71.21;102884.41;5049466;28;1955;-77
2023/05/03 07:32:56;;;;;;;;;;;;;;;7.69;71.71;102874.66;5047446;28;1251;-78
2023/05/03 07:35:22;;;;;;;;;;;;;;;7.81;71.35;102871.59;5046852;28;1180;-77
2023/05/03 07:37:47;;;;;;;;;;;;;;;7.95;70.66;102873.66;5040844;28;1358;-77
2023/05/03 07:40:12;;;;;;;;;;;;;;;7.96;68.61;102876.19;5047282;28;1569;-76
2023/05/03 07:42:38;;;;;;;;;;;;;;;8.02;69.18;102869.09;5048743;28;1650;-77
2023/05/03 07:45:03;;;;;;;;;;;;;;;8.18;69.20;102865.03;5039590;28;1270;-77
2023/05/03 07:47:28;;;;;;;;;;;;;;;8.17;68.08;102853.84;5048232;28;1339;-76
2023/05/03 07:49:53;;;;;;;;;;;;;;;8.19;66.74;102843.44;5043685;28;1976;-77
2023/05/03 07:52:19;;;;;;;;;;;;;;;8.33;66.28;102846.34;5038288;28;1570;-76
2023/05/03 07:54:47;;;;;;;;;;;;;;;8.27;65.51;102844.00;5038681;28;1426;-77
2023/05/03 07:57:15;;;;;;;;;;;;;;;8.38;66.18;102843.59;5049420;28;1204;-77
2023/05/03 07:59:43;;;;;;;;;;;;;;;8.38;64.75;102841.88;5048289;28;1212;-78
2023/05/03 08:02:08;;;;;;;;;;;;;;;8.44;66.13;102840.78;5040910;28;1296;-77
2023/05/03 08:04:34;;;;;;;;;;;;;;;8.48;66.26;102835.38;5040967;28;1229;-78
2023/05/03 08:07:03;;;;;;;;;;;;;;;8.50;65.50;102835.34;5041060;28;1284;-78
2023/05/03 08:09:28;;;;;;;;;;;;;;;8.58;64.32;102824.69;5038976;28;1890;-78
2023/05/03 08:11:55;;;;;;;;;;;;;;;8.67;64.70;102834.66;5044725;28;1323;-77
2023/05/03 08:14:20;;;;;;;;;;;;;;;8.65;64.83;102820.94;5047001;28;1283;-77
2023/05/03 08:16:45;;;;;;;;;;;;;;;8.77;65.16;102831.63;5034398;28;1121;-77
2023/05/03 08:19:10;;;;;;;;;;;;;;;8.82;65.49;102831.41;5041491;28;1165;-77
2023/05/03 08:21:35;;;;;;;;;;;;;;;8.89;65.41;102838.03;5046415;28;1265;-77
2023/05/03 08:24:01;;;;;;;;;;;;;;;9.03;64.54;102825.34;5039245;28;1248;-77
2023/05/03 08:26:27;;;;;;;;;;;;;;;9.03;64.91;102840.88;5039268;28;1105;-77
2023/05/03 08:28:53;;;;;;;;;;;;;;;9.12;64.35;102825.81;5044511;28;1898;-77
2023/05/03 08:31:18;;;;;;;;;;;;;;;9.28;63.67;102824.25;5040193;28;1188;-77
2023/05/03 08:33:43;;;;;;;;;;;;;;;9.27;62.99;102832.94;5031636;28;1077;-77
2023/05/03 08:36:08;;;;;;;;;;;;;;;9.28;63.06;102824.25;5037478;28;1270;-78
2023/05/03 08:38:35;;;;;;;;;;;;;;;9.32;62.60;102836.16;5042827;28;1506;-77
2023/05/03 08:41:06;;;;;;;;;;;;;;;9.38;62.75;102824.69;5045772;28;1184;-77
2023/05/03 08:43:35;;;;;;;;;;;;;;;9.34;63.18;102817.97;5045798;28;2406;-77
2023/05/03 08:46:00;;;;;;;;;;;;;;;9.45;62.81;102807.97;5043794;28;1330;-77
2023/05/03 08:48:25;;;;;;;;;;;;;;;9.55;63.19;102812.66;5048607;28;1260;-77
2023/05/03 08:50:52;;;;;;;;;;;;;;;9.62;62.99;102802.03;5044638;28;1898;-77
2023/05/03 08:53:17;;;;;;;;;;;;;;;9.76;63.23;102807.44;5040499;28;1561;-77
2023/05/03 08:55:43;;;;;;;;;;;;;;;9.95;61.64;102810.81;5044389;28;1346;-77
2023/05/03 08:58:11;;;;;;;;;;;;;;;9.93;62.07;102797.09;5044793;28;1082;-77
2023/05/03 09:00:37;;;;;;;;;;;;;;;9.91;62.07;102806.69;5039654;28;1260;-77
2023/05/03 09:03:02;;;;;;;;;;;;;;;9.94;61.49;102819.53;5038628;28;1379;-77
2023/05/03 09:05:32;;;;;;;;;;;;;;;9.97;62.39;102818.53;5040829;28;1482;-77
2023/05/03 09:08:08;;;;;;;;;;;;;;;9.98;62.04;102826.25;5043601;28;1188;-77
2023/05/03 09:10:36;;;;;;;;;;;;;;;10.06;63.17;102828.47;5034044;28;1894;-77
2023/05/03 09:13:01;;;;;;;;;;;;;;;10.17;62.92;102831.38;5036757;28;1230;-77
2023/05/03 09:15:30;;;;;;;;;;;;;;;10.31;62.41;102838.53;5046349;28;1315;-77
2023/05/03 09:18:08;;;;;;;;;;;;;;;10.26;60.87;102835.31;5041427;28;1256;-77
2023/05/03 09:20:35;;;;;;;;;;;;;;;10.29;61.58;102835.19;5054464;28;1305;-78
2023/05/03 09:23:00;;;;;;;;;;;;;;;10.39;61.94;102833.00;5042337;28;1324;-77
2023/05/03 09:25:38;;;;;;;;;;;;;;;10.41;59.96;102833.75;5033381;28;1462;-78
2023/05/03 09:28:03;;;;;;;;;;;;;;;10.47;60.18;102829.09;5044419;28;1029;-78
2023/05/03 09:30:29;;;;;;;;;;;;;;;10.44;59.40;102824.06;5040698;28;1894;-77
2023/05/03 09:32:54;;;;;;;;;;;;;;;10.49;60.61;102822.06;5041226;28;998;-77
2023/05/03 09:35:19;;;;;;;;;;;;;;;10.60;60.49;102814.59;5040708;28;1273;-77
2023/05/03 09:37:45;;;;;;;;;;;;;;;10.79;59.69;102818.88;5039849;28;1216;-77
2023/05/03 09:40:11;;;;;;;;;;;;;;;10.74;59.60;102833.84;5045822;28;1011;-78
2023/05/03 09:42:37;;;;;;;;;;;;;;;10.89;59.59;102827.84;5044483;28;1208;-78
2023/05/03 09:45:02;;;;;;;;;;;;;;;11.07;58.71;102823.50;5039544;28;1319;-77
2023/05/03 09:47:27;;;;;;;;;;;;;;;10.97;58.62;102825.72;5042238;28;1303;-77
2023/05/03 09:49:52;;;;;;;;;;;;;;;10.95;58.61;102811.97;5042216;28;1960;-77
2023/05/03 09:52:18;;;;;;;;;;;;;;;11.07;58.62;102826.94;5042044;28;1260;-77
2023/05/03 09:54:44;;;;;;;;;;;;;;;11.05;58.79;102820.97;5039507;28;1565;-77
2023/05/03 09:57:11;;;;;;;;;;;;;;;11.09;58.61;102825.09;5037095;28;1529;-77
2023/05/03 09:59:37;;;;;;;;;;;;;;;11.16;56.90;102823.84;5041611;28;1085;-77
2023/05/03 10:02:04;;;;;;;;;;;;;;;11.22;58.77;102827.03;5041698;28;1279;-78
2023/05/03 10:04:42;;;;;;;;;;;;;;;11.26;57.92;102824.22;5040304;28;1442;-77
2023/05/03 10:07:11;;;;;;;;;;;;;;;11.33;58.78;102824.72;5043951;28;1185;-79
2023/05/03 10:09:42;;;;;;;;;;;;;;;11.48;57.68;102831.72;5044888;28;1945;-77
2023/05/03 10:12:08;;;;;;;;;;;;;;;11.51;57.15;102823.72;5042342;28;1286;-77
2023/05/03 10:14:34;;;;;;;;;;;;;;;11.58;58.93;102826.84;5040723;28;1251;-77
2023/05/03 10:17:05;;;;;;;;;;;;;;;11.73;55.76;102827.78;5042164;28;1238;-76
2023/05/03 10:19:31;;;;;;;;;;;;;;;11.59;56.29;102825.94;5035366;28;1120;-78
2023/05/03 10:22:03;;;;;;;;;;;;;;;11.58;55.65;102825.06;5043125;28;1199;-78
2023/05/03 10:24:28;;;;;;;;;;;;;;;11.57;55.64;102826.00;5037553;28;1314;-77
2023/05/03 10:26:54;;;;;;;;;;;;;;;11.56;56.11;102823.50;5037521;28;887;-77
2023/05/03 10:29:32;;;;;;;;;;;;;;;11.60;56.13;102828.44;5034192;28;1906;-77
2023/05/03 10:31:57;;;;;;;;;;;;;;;11.70;56.81;102824.44;5057306;28;1256;-78
2023/05/03 10:34:23;;;;;;;;;;;;;;;11.81;55.71;102815.19;5043730;28;1521;-78
2023/05/03 10:36:52;;;;;;;;;;;;;;;11.84;56.16;102815.06;5044916;28;1273;-77
2023/05/03 10:39:18;;;;;;;;;;;;;;;11.87;53.56;102827.88;5040481;28;1253;-76
2023/05/03 10:41:43;;;;;;;;;;;;;;;11.89;54.12;102813.06;5032581;28;1143;-77
2023/05/03 10:44:25;;;;;;;;;;;;;;;11.95;55.97;102807.50;5043387;28;1129;-76
2023/05/03 10:46:52;;;;;;;;;;;;;;;12.09;56.92;102804.97;5033011;28;1245;-76
2023/05/03 10:49:19;;;;;;;;;;;;;;;12.29;54.46;102810.81;5040090;28;1969;-76
2023/05/03 10:51:44;;;;;;;;;;;;;;;12.31;55.27;102804.59;5054386;28;1600;-76
2023/05/03 10:54:09;;;;;;;;;;;;;;;12.34;54.71;102803.59;5036592;28;1324;-77
2023/05/03 10:56:46;;;;;;;;;;;;;;;12.33;54.12;102817.50;5033878;28;1205;-76
2023/05/03 10:59:11;;;;;;;;;;;;;;;12.32;52.96;102805.44;5043547;28;1203;-77
2023/05/03 11:01:37;;;;;;;;;;;;;;;12.41;53.92;102804.91;5031667;28;1287;-77
2023/05/03 11:04:14;;;;;;;;;;;;;;;12.47;52.90;102804.56;5040641;28;1269;-77
2023/05/03 11:06:44;;;;;;;;;;;;;;;12.48;54.63;102801.00;5042666;28;1192;-76
2023/05/03 11:09:12;;;;;;;;;;;;;;;12.57;53.93;102784.88;5057977;28;1898;-77
2023/05/03 11:11:39;;;;;;;;;;;;;;;12.69;54.79;102784.16;5050057;28;1234;-77
2023/05/03 11:14:04;;;;;;;;;;;;;;;12.84;54.19;102786.75;5044061;28;1264;-77
2023/05/03 11:16:30;;;;;;;;;;;;;;;12.93;54.24;102781.00;5041351;28;1533;-77
2023/05/03 11:18:55;;;;;;;;;;;;;;;12.96;52.27;102783.41;5041403;28;1305;-78
2023/05/03 11:21:21;;;;;;;;;;;;;;;12.96;52.20;102775.59;5042971;28;1262;-77
2023/05/03 11:23:46;;;;;;;;;;;;;;;12.88;52.93;102772.63;5044242;28;1216;-77
2023/05/03 11:26:12;;;;;;;;;;;;;;;12.96;53.19;102775.59;5042275;28;1262;-77
2023/05/03 11:28:38;;;;;;;;;;;;;;;13.10;53.27;102767.78;5043266;28;1240;-77
2023/05/03 11:31:05;;;;;;;;;;;;;;;13.28;53.16;102771.91;5045080;28;1918;-77
2023/05/03 11:33:30;;;;;;;;;;;;;;;13.33;52.28;102768.19;5038343;28;1457;-77
2023/05/03 11:35:56;;;;;;;;;;;;;;;13.34;51.69;102767.22;5042144;28;1100;-77
2023/05/03 11:38:21;;;;;;;;;;;;;;;13.39;52.95;102757.38;5037334;28;1392;-77
2023/05/03 11:40:46;;;;;;;;;;;;;;;13.46;51.70;102750.81;5033320;28;1443;-77
2023/05/03 11:43:12;;;;;;;;;;;;;;;13.45;50.60;102751.75;5047004;28;1073;-77
2023/05/03 11:45:43;;;;;;;;;;;;;;;13.48;51.29;102748.97;5039318;28;1310;-77
2023/05/03 11:48:09;;;;;;;;;;;;;;;13.54;51.93;102748.59;5041905;28;1217;-77
2023/05/03 11:50:46;;;;;;;;;;;;;;;13.60;52.07;102748.19;5043225;28;1918;-77
2023/05/03 11:53:15;;;;;;;;;;;;;;;13.57;51.09;102737.94;5041471;28;1323;-77
2023/05/03 11:55:42;;;;;;;;;;;;;;;13.56;50.85;102738.88;5048730;28;1560;-78
2023/05/03 11:58:14;;;;;;;;;;;;;;;13.63;52.02;102742.78;5048187;28;1117;-78
2023/05/03 12:00:46;;;;;;;;;;;;;;;13.70;51.11;102744.03;5037744;28;1487;-77
2023/05/03 12:03:21;;;;;;;;;;;;;;;13.78;50.81;102744.41;5060823;28;1337;-77
2023/05/03 12:05:48;;;;;;;;;;;;;;;13.79;48.08;102729.59;5045940;28;1318;-80
2023/05/03 12:08:14;;;;;;;;;;;;;;;13.67;50.56;102735.59;5033706;28;1249;-78
2023/05/03 12:10:40;;;;;;;;;;;;;;;13.65;49.64;102727.00;5054762;28;1965;-78
2023/05/03 12:13:05;;;;;;;;;;;;;;;13.67;51.11;102731.22;5048213;28;1164;-78
2023/05/03 12:15:32;;;;;;;;;;;;;;;13.74;51.17;102724.66;5048698;28;1572;-77
2023/05/03 12:17:58;;;;;;;;;;;;;;;13.91;51.20;102717.53;5045109;28;1004;-77
2023/05/03 12:20:24;;;;;;;;;;;;;;;13.98;50.33;102719.63;5039236;28;1494;-77
2023/05/03 12:22:51;;;;;;;;;;;;;;;13.86;50.05;102704.78;5037905;28;1508;-77
2023/05/03 12:25:16;;;;;;;;;;;;;;;13.87;50.24;102710.81;5036981;28;1411;-78
2023/05/03 12:27:41;;;;;;;;;;;;;;;13.99;50.30;102694.34;5038232;28;1518;-77
2023/05/03 12:30:09;;;;;;;;;;;;;;;13.97;47.90;102709.28;5043942;28;1895;-76
2023/05/03 12:32:34;;;;;;;;;;;;;;;13.77;49.62;102695.78;5029258;28;1214;-78
2023/05/03 12:34:59;;;;;;;;;;;;;;;13.82;48.31;102698.94;5039836;28;1300;-77
2023/05/03 12:37:24;;;;;;;;;;;;;;;13.82;49.08;102688.50;5032634;28;1021;-78
2023/05/03 12:39:50;;;;;;;;;;;;;;;13.82;49.50;102682.47;5038022;28;1296;-77
2023/05/03 12:42:15;;;;;;;;;;;;;;;13.85;49.46;102681.41;5035310;28;1399;-77
2023/05/03 12:44:41;;;;;;;;;;;;;;;13.94;50.35;102678.19;5039728;28;1173;-77
2023/05/03 12:47:06;;;;;;;;;;;;;;;14.03;49.93;102669.75;5040701;28;1231;-78
2023/05/03 12:49:31;;;;;;;;;;;;;;;14.13;49.25;102665.59;5045755;28;1950;-77